CYED weather

Public forecast

Using degrees Celsius for public forecast. Weather courtesy of forecast.io.

Current aviation weather report (METAR) for Edmonton (CFB Namao) Heliport

Retrieved 2020/08/12 12:29 UTC (0 seconds ago):

CYED 121229Z AUTO 29007KT 9SM FEW005 OVC008 OVC021 OVC073 10/09 A2970

Aviation forecast (TAF) for Edmonton (CFB Namao) Heliport

Retrieved 2020/08/12 12:33 UTC (0 seconds ago):

TAF CYED 121130Z 1212/1224 31008KT P6SM FEW020 SCT050 TEMPO 1212/1214 4SM -SHRA BR BKN006 OVC020 BECMG 1219/1221 28010KT RMK FCST BASED ON AUTO OBS 121200-121600Z NXT FCST BY 121800Z